createdAt,value
2023-04-02T00:00:55.018Z,1.72
2023-04-02T00:01:55.037Z,1.73
2023-04-02T00:02:55.200Z,1.72
2023-04-02T00:03:55.057Z,1.74
2023-04-02T00:04:54.924Z,1.73
2023-04-02T00:05:55.021Z,1.74
2023-04-02T00:06:54.990Z,1.74
2023-04-02T00:07:55.034Z,1.67
2023-04-02T00:08:55.019Z,1.73
2023-04-02T00:09:54.989Z,1.71
2023-04-02T00:10:55.003Z,1.71
2023-04-02T00:11:55.016Z,1.71
2023-04-02T00:12:54.932Z,1.68
2023-04-02T00:13:54.972Z,1.70
2023-04-02T00:14:54.942Z,1.71
2023-04-02T00:15:54.903Z,1.72
2023-04-02T00:16:54.940Z,1.73
2023-04-02T00:17:55.011Z,1.74
2023-04-02T00:18:54.985Z,1.75
2023-04-02T00:19:54.895Z,1.75
2023-04-02T00:20:54.818Z,1.69
2023-04-02T00:21:54.784Z,1.70
2023-04-02T00:22:54.765Z,1.75
2023-04-02T00:23:54.757Z,1.74
2023-04-02T00:24:54.771Z,1.68
2023-04-02T00:25:54.733Z,1.74
2023-04-02T00:26:54.719Z,1.69
2023-04-02T00:27:54.696Z,1.70
2023-04-02T00:28:54.732Z,1.68
2023-04-02T00:29:54.653Z,1.70
2023-04-02T00:30:54.662Z,1.66
2023-04-02T00:31:54.790Z,1.63
2023-04-02T00:32:54.723Z,1.69
2023-04-02T00:33:54.971Z,1.63
2023-04-02T00:34:54.676Z,1.67
2023-04-02T00:35:54.692Z,1.63
2023-04-02T00:36:54.629Z,1.64
2023-04-02T00:37:54.638Z,1.63
2023-04-02T00:38:54.626Z,1.61
2023-04-02T00:39:54.656Z,1.63
2023-04-02T00:40:54.680Z,1.63
2023-04-02T00:41:54.719Z,1.61
2023-04-02T00:42:54.676Z,1.61
2023-04-02T00:43:54.651Z,1.60
2023-04-02T00:44:54.759Z,1.57
2023-04-02T00:45:54.700Z,1.56
2023-04-02T00:46:54.686Z,1.59
2023-04-02T00:47:54.782Z,1.56
2023-04-02T00:48:54.764Z,1.58
2023-04-02T00:49:54.757Z,1.54
2023-04-02T00:50:54.781Z,1.56
2023-04-02T00:51:54.759Z,1.58
2023-04-02T00:52:54.766Z,1.60
2023-04-02T00:53:54.780Z,1.59
2023-04-02T00:54:54.789Z,1.56
2023-04-02T00:55:54.783Z,1.60
2023-04-02T00:56:54.814Z,1.58
2023-04-02T00:57:54.775Z,1.58
2023-04-02T00:58:54.792Z,1.61
2023-04-02T00:59:54.835Z,1.59
2023-04-02T01:00:54.845Z,1.59
2023-04-02T01:01:54.818Z,1.56
2023-04-02T01:02:54.912Z,1.61
2023-04-02T01:03:54.883Z,1.62
2023-04-02T01:04:54.982Z,1.56
2023-04-02T01:05:54.966Z,1.65
2023-04-02T01:06:54.942Z,1.57
2023-04-02T01:07:54.971Z,1.62
2023-04-02T01:08:54.925Z,1.63
2023-04-02T01:09:55.044Z,1.60
2023-04-02T01:10:55.009Z,1.58
2023-04-02T01:11:55.075Z,1.62
2023-04-02T01:12:55.053Z,1.61
2023-04-02T01:13:55.060Z,1.58
2023-04-02T01:14:55.045Z,1.60
2023-04-02T01:15:54.999Z,1.60
2023-04-02T01:16:55.004Z,1.58
2023-04-02T01:17:55.017Z,1.60
2023-04-02T01:18:54.946Z,1.60
2023-04-02T01:19:54.881Z,1.58
2023-04-02T01:20:54.994Z,1.54
2023-04-02T01:21:54.881Z,1.54
2023-04-02T01:22:54.851Z,1.57
2023-04-02T01:23:54.853Z,1.59
2023-04-02T01:24:54.821Z,1.57
2023-04-02T01:25:54.833Z,1.58
2023-04-02T01:26:54.787Z,1.56
2023-04-02T01:27:54.765Z,1.53
2023-04-02T01:28:54.756Z,1.55
2023-04-02T01:29:54.890Z,1.54
2023-04-02T01:30:55.403Z,1.56
2023-04-02T01:31:54.724Z,1.56
2023-04-02T01:32:55.499Z,1.55
2023-04-02T01:33:54.768Z,1.51
2023-04-02T01:34:54.771Z,1.54
2023-04-02T01:35:54.704Z,1.53
2023-04-02T01:36:54.747Z,1.52
2023-04-02T01:37:54.598Z,1.51
2023-04-02T01:38:54.660Z,1.52
2023-04-02T01:39:54.586Z,1.53
2023-04-02T01:40:54.600Z,1.53
2023-04-02T01:41:54.601Z,1.53
2023-04-02T01:42:54.601Z,1.52
2023-04-02T01:43:54.596Z,1.51
2023-04-02T01:44:54.601Z,1.51
2023-04-02T01:45:54.599Z,1.51
2023-04-02T01:46:54.708Z,1.48
2023-04-02T01:47:54.706Z,1.52
2023-04-02T01:48:54.626Z,1.49
2023-04-02T01:49:54.728Z,1.47
2023-04-02T01:50:54.649Z,1.48
2023-04-02T01:51:54.659Z,1.51
2023-04-02T01:52:54.637Z,1.52
2023-04-02T01:53:54.648Z,1.52
2023-04-02T01:54:54.735Z,1.48
2023-04-02T01:55:54.694Z,1.51
2023-04-02T01:56:54.735Z,1.49
2023-04-02T01:57:54.735Z,1.54
2023-04-02T01:58:54.719Z,1.53
2023-04-02T01:59:54.745Z,1.50
2023-04-02T02:00:54.827Z,1.50
2023-04-02T02:01:54.805Z,1.48
2023-04-02T02:02:54.769Z,1.51
2023-04-02T02:03:54.785Z,1.52
2023-04-02T02:04:54.800Z,1.51
2023-04-02T02:05:54.839Z,1.53
2023-04-02T02:06:54.822Z,1.49
2023-04-02T02:07:54.791Z,1.50
2023-04-02T02:08:54.814Z,1.50
2023-04-02T02:09:54.810Z,1.50
2023-04-02T02:10:54.805Z,1.51
2023-04-02T02:11:54.886Z,1.52
2023-04-02T02:12:54.814Z,1.53
2023-04-02T02:13:54.753Z,1.54
2023-04-02T02:14:54.747Z,1.54
2023-04-02T02:15:54.748Z,1.54
2023-04-02T02:16:54.726Z,1.54
2023-04-02T02:17:54.793Z,1.54
2023-04-02T02:18:54.704Z,1.54
2023-04-02T02:19:54.714Z,1.55
2023-04-02T02:20:54.757Z,1.53
2023-04-02T02:21:54.735Z,1.53
2023-04-02T02:22:54.728Z,1.56
2023-04-02T02:23:54.691Z,1.55
2023-04-02T02:24:54.679Z,1.53
2023-04-02T02:25:54.636Z,1.52
2023-04-02T02:26:54.627Z,1.54
2023-04-02T02:27:54.600Z,1.55
2023-04-02T02:28:54.625Z,1.52
2023-04-02T02:29:54.572Z,1.53
2023-04-02T02:30:54.559Z,1.52
2023-04-02T02:31:54.606Z,1.52
2023-04-02T02:32:54.596Z,1.47
2023-04-02T02:33:54.513Z,1.48
2023-04-02T02:34:54.575Z,1.50
2023-04-02T02:35:54.629Z,1.50
2023-04-02T02:36:54.722Z,1.51
2023-04-02T02:37:54.777Z,1.53
2023-04-02T02:38:54.900Z,1.53
2023-04-02T02:39:54.827Z,1.56
2023-04-02T02:40:54.900Z,1.56
2023-04-02T02:41:54.859Z,1.54
2023-04-02T02:42:54.866Z,1.56
2023-04-02T02:43:54.903Z,1.56
2023-04-02T02:44:54.908Z,1.55
2023-04-02T02:45:54.938Z,1.57
2023-04-02T02:46:54.908Z,1.56
2023-04-02T02:47:54.994Z,1.54
2023-04-02T02:48:54.901Z,1.55
2023-04-02T02:49:54.914Z,1.55
2023-04-02T02:50:54.942Z,1.58
2023-04-02T02:51:54.935Z,1.57
2023-04-02T02:52:54.965Z,1.57
2023-04-02T02:53:54.942Z,1.56
2023-04-02T02:54:54.949Z,1.58
2023-04-02T02:55:55.031Z,1.56
2023-04-02T02:56:55.017Z,1.57
2023-04-02T02:57:54.990Z,1.59
2023-04-02T02:58:55.132Z,1.59
2023-04-02T02:59:54.986Z,1.59
2023-04-02T03:00:54.986Z,1.59
2023-04-02T03:01:55.067Z,1.60
2023-04-02T03:02:55.171Z,1.62
2023-04-02T03:03:55.268Z,1.58
2023-04-02T03:04:55.011Z,1.58
2023-04-02T03:05:55.126Z,1.60
2023-04-02T03:06:55.079Z,1.61
2023-04-02T03:07:55.121Z,1.59
2023-04-02T03:08:55.986Z,1.61
2023-04-02T03:09:55.086Z,1.61
2023-04-02T03:10:55.136Z,1.62
2023-04-02T03:11:55.229Z,1.62
2023-04-02T03:12:55.166Z,1.61
2023-04-02T03:13:55.200Z,1.62
2023-04-02T03:14:55.933Z,1.65
2023-04-02T03:15:55.461Z,1.65
2023-04-02T03:16:55.169Z,1.63
2023-04-02T03:17:55.232Z,1.63
2023-04-02T03:18:55.196Z,1.65
2023-04-02T03:19:55.228Z,1.63
2023-04-02T03:20:55.218Z,1.60
2023-04-02T03:21:55.235Z,1.63
2023-04-02T03:22:55.251Z,1.62
2023-04-02T03:23:55.271Z,1.61
2023-04-02T03:24:55.267Z,1.60
2023-04-02T03:25:55.292Z,1.61
2023-04-02T03:26:55.285Z,1.64
2023-04-02T03:27:55.294Z,1.64
2023-04-02T03:28:55.315Z,1.61
2023-04-02T03:29:55.329Z,1.61
2023-04-02T03:30:55.398Z,1.59
2023-04-02T03:31:55.345Z,1.55
2023-04-02T03:32:55.358Z,1.58
2023-04-02T03:33:55.360Z,1.55
2023-04-02T03:34:55.370Z,1.56
2023-04-02T03:35:55.396Z,1.54
2023-04-02T03:36:55.411Z,1.55
2023-04-02T03:37:55.399Z,1.53
2023-04-02T03:38:55.411Z,1.54
2023-04-02T03:39:55.417Z,1.53
2023-04-02T03:40:55.405Z,1.51
2023-04-02T03:41:55.384Z,1.51
2023-04-02T03:42:55.384Z,1.51
2023-04-02T03:43:55.344Z,1.52
2023-04-02T03:44:55.332Z,1.52
2023-04-02T03:45:55.328Z,1.53
2023-04-02T03:46:55.440Z,1.54
2023-04-02T03:47:55.366Z,1.56
2023-04-02T03:48:55.279Z,1.51
2023-04-02T03:49:55.291Z,1.54
2023-04-02T03:50:55.255Z,1.50
2023-04-02T03:51:55.245Z,1.51
2023-04-02T03:52:55.285Z,1.52
2023-04-02T03:53:55.218Z,1.53
2023-04-02T03:54:55.228Z,1.51
2023-04-02T03:55:55.219Z,1.52
2023-04-02T03:56:55.208Z,1.50
2023-04-02T03:57:55.134Z,1.51
2023-04-02T03:58:55.149Z,1.50
2023-04-02T03:59:55.144Z,1.48
2023-04-02T04:00:55.141Z,1.47
2023-04-02T04:01:55.156Z,1.47
2023-04-02T04:02:55.155Z,1.46
2023-04-02T04:03:55.099Z,1.47
2023-04-02T04:04:55.048Z,1.46
2023-04-02T04:05:55.015Z,1.44
2023-04-02T04:06:55.002Z,1.44
2023-04-02T04:07:54.979Z,1.42
2023-04-02T04:08:54.979Z,1.44
2023-04-02T04:09:54.997Z,1.41
2023-04-02T04:10:55.047Z,1.42
2023-04-02T04:11:55.021Z,1.42
2023-04-02T04:12:54.995Z,1.40
2023-04-02T04:13:55.015Z,1.41
2023-04-02T04:14:55.033Z,1.41
2023-04-02T04:15:55.025Z,1.41
2023-04-02T04:16:55.111Z,1.42
2023-04-02T04:17:55.071Z,1.41
2023-04-02T04:18:55.049Z,1.40
2023-04-02T04:19:55.080Z,1.45
2023-04-02T04:20:55.093Z,1.45
2023-04-02T04:21:55.100Z,1.40
2023-04-02T04:22:55.152Z,1.42
2023-04-02T04:23:55.153Z,1.43
2023-04-02T04:24:55.166Z,1.42
2023-04-02T04:25:55.210Z,1.43
2023-04-02T04:26:55.235Z,1.41
2023-04-02T04:27:55.218Z,1.40
2023-04-02T04:28:55.198Z,1.39
2023-04-02T04:29:55.168Z,1.39
2023-04-02T04:30:55.212Z,1.40
2023-04-02T04:31:55.333Z,1.40
2023-04-02T04:32:55.289Z,1.39
2023-04-02T04:33:55.265Z,1.42
2023-04-02T04:34:55.313Z,1.40
2023-04-02T04:35:55.297Z,1.39
2023-04-02T04:36:55.352Z,1.40
2023-04-02T04:37:55.360Z,1.39
2023-04-02T04:38:55.433Z,1.39
2023-04-02T04:39:55.466Z,1.37
2023-04-02T04:40:55.534Z,1.40
2023-04-02T04:41:55.576Z,1.40
2023-04-02T04:42:55.555Z,1.41
2023-04-02T04:43:55.609Z,1.40
2023-04-02T04:44:55.582Z,1.41
2023-04-02T04:45:55.659Z,1.39
2023-04-02T04:46:55.627Z,1.39
2023-04-02T04:47:55.627Z,1.38
2023-04-02T04:48:55.657Z,1.41
2023-04-02T04:49:55.636Z,1.42
2023-04-02T04:50:55.636Z,1.42
2023-04-02T04:51:55.649Z,1.42
2023-04-02T04:52:55.609Z,1.43
2023-04-02T04:53:55.583Z,1.40
2023-04-02T04:54:55.558Z,1.41
2023-04-02T04:55:56.083Z,1.40
2023-04-02T04:56:55.565Z,1.44
2023-04-02T04:57:55.584Z,1.43
2023-04-02T04:58:55.531Z,1.43
2023-04-02T04:59:55.507Z,1.39
2023-04-02T05:00:55.505Z,1.39
2023-04-02T05:01:55.619Z,1.40
2023-04-02T05:02:55.545Z,1.39
2023-04-02T05:03:55.477Z,1.43
2023-04-02T05:04:55.478Z,1.43
2023-04-02T05:05:55.464Z,1.43
2023-04-02T05:06:55.449Z,1.43
2023-04-02T05:07:56.780Z,1.44
2023-04-02T05:08:55.421Z,1.43
2023-04-02T05:09:55.399Z,1.44
2023-04-02T05:10:55.379Z,1.41
2023-04-02T05:11:55.373Z,1.42
2023-04-02T05:12:55.350Z,1.42
2023-04-02T05:13:55.337Z,1.42
2023-04-02T05:14:55.321Z,1.42
2023-04-02T05:15:55.416Z,1.41
2023-04-02T05:16:55.343Z,1.43
2023-04-02T05:17:55.371Z,1.44
2023-04-02T05:18:55.294Z,1.45
2023-04-02T05:19:55.261Z,1.43
2023-04-02T05:20:55.364Z,1.43
2023-04-02T05:21:55.273Z,1.43
2023-04-02T05:22:55.277Z,1.43
2023-04-02T05:23:55.270Z,1.42
2023-04-02T05:24:55.987Z,1.41
2023-04-02T05:25:55.248Z,1.46
2023-04-02T05:26:55.238Z,1.46
2023-04-02T05:27:55.194Z,1.43
2023-04-02T05:28:55.145Z,1.44
2023-04-02T05:29:55.180Z,1.44
2023-04-02T05:30:55.132Z,1.43
2023-04-02T05:31:55.116Z,1.43
2023-04-02T05:32:55.096Z,1.44
2023-04-02T05:33:55.078Z,1.44
2023-04-02T05:34:55.093Z,1.44
2023-04-02T05:35:55.103Z,1.45
2023-04-02T05:36:55.523Z,1.44
2023-04-02T05:37:55.033Z,1.47
2023-04-02T05:38:55.041Z,1.45
2023-04-02T05:39:55.048Z,1.46
2023-04-02T05:40:55.000Z,1.46
2023-04-02T05:41:55.009Z,1.46
2023-04-02T05:42:55.028Z,1.46
2023-04-02T05:43:55.006Z,1.46
2023-04-02T05:44:54.964Z,1.48
2023-04-02T05:45:54.982Z,1.49
2023-04-02T05:46:55.005Z,1.50
2023-04-02T05:47:55.055Z,1.46
2023-04-02T05:48:54.870Z,1.48
2023-04-02T05:49:54.925Z,1.48
2023-04-02T05:50:54.852Z,1.49
2023-04-02T05:51:57.101Z,1.49
2023-04-02T05:52:54.827Z,1.50
2023-04-02T05:53:54.926Z,1.51
2023-04-02T05:54:55.492Z,1.51
2023-04-02T05:55:54.784Z,1.52
2023-04-02T05:56:54.815Z,1.54
2023-04-02T05:58:13.387Z,1.50
2023-04-02T05:58:55.841Z,1.50
2023-04-02T05:59:54.728Z,1.51
2023-04-02T06:00:54.735Z,1.52
2023-04-02T06:01:54.694Z,1.53
2023-04-02T06:02:54.741Z,1.56
2023-04-02T06:03:54.679Z,1.50
2023-04-02T06:04:54.661Z,1.51
2023-04-02T06:05:54.628Z,1.51
2023-04-02T06:06:54.640Z,1.53
2023-04-02T06:07:54.607Z,1.53
2023-04-02T06:08:54.604Z,1.53
2023-04-02T06:09:54.568Z,1.53
2023-04-02T06:10:54.607Z,1.52
2023-04-02T06:11:54.549Z,1.50
2023-04-02T06:12:54.538Z,1.52
2023-04-02T06:13:54.508Z,1.52
2023-04-02T06:14:54.503Z,1.51
2023-04-02T06:15:54.514Z,1.49
2023-04-02T06:16:54.544Z,1.49
2023-04-02T06:17:54.501Z,1.49
2023-04-02T06:18:54.449Z,1.46
2023-04-02T06:19:54.470Z,1.48
2023-04-02T06:20:54.417Z,1.49
2023-04-02T06:21:54.437Z,1.50
2023-04-02T06:22:54.413Z,1.46
2023-04-02T06:23:54.390Z,1.48
2023-04-02T06:24:54.383Z,1.48
2023-04-02T06:25:54.846Z,1.46
2023-04-02T06:26:54.348Z,1.47
2023-04-02T06:27:54.329Z,1.50
2023-04-02T06:28:54.349Z,1.47
2023-04-02T06:29:54.319Z,1.49
2023-04-02T06:30:54.336Z,1.47
2023-04-02T06:31:54.308Z,1.45
2023-04-02T06:32:54.344Z,1.48
2023-04-02T06:33:54.266Z,1.47
2023-04-02T06:34:54.242Z,1.47
2023-04-02T06:35:54.280Z,1.43
2023-04-02T06:36:54.271Z,1.46
2023-04-02T06:37:54.274Z,1.44
2023-04-02T06:38:54.350Z,1.45
2023-04-02T06:39:54.280Z,1.44
2023-04-02T06:40:54.679Z,1.45
2023-04-02T06:41:54.312Z,1.43
2023-04-02T06:42:54.318Z,1.45
2023-04-02T06:43:54.313Z,1.49
2023-04-02T06:44:54.324Z,1.49
2023-04-02T06:45:54.352Z,1.47
2023-04-02T06:46:54.337Z,1.47
2023-04-02T06:47:54.439Z,1.43
2023-04-02T06:48:54.366Z,1.46
2023-04-02T06:49:54.393Z,1.45
2023-04-02T06:50:54.431Z,1.46
2023-04-02T06:51:54.475Z,1.47
2023-04-02T06:52:54.577Z,1.45
2023-04-02T06:53:54.536Z,1.45
2023-04-02T06:54:54.561Z,1.46
2023-04-02T06:55:54.547Z,1.44
2023-04-02T06:56:54.613Z,1.48
2023-04-02T06:57:54.585Z,1.47
2023-04-02T06:58:54.586Z,1.47
2023-04-02T06:59:54.584Z,1.44
2023-04-02T07:00:54.605Z,1.44
2023-04-02T07:01:54.700Z,1.43
2023-04-02T07:02:55.585Z,1.46
2023-04-02T07:03:54.619Z,1.39
2023-04-02T07:04:54.627Z,1.41
2023-04-02T07:05:54.625Z,1.43
2023-04-02T07:06:54.635Z,1.42
2023-04-02T07:07:54.645Z,1.38
2023-04-02T07:08:54.642Z,1.38
2023-04-02T07:09:54.660Z,1.41
2023-04-02T07:10:54.647Z,1.35
2023-04-02T07:11:54.642Z,1.30
2023-04-02T07:12:54.659Z,1.29
2023-04-02T07:13:54.663Z,1.29
2023-04-02T07:14:54.678Z,1.29
2023-04-02T07:15:54.698Z,1.25
2023-04-02T07:16:54.688Z,1.26
2023-04-02T07:17:54.746Z,1.27
2023-04-02T07:18:54.692Z,1.26
2023-04-02T07:19:54.717Z,1.25
2023-04-02T07:20:54.710Z,1.25
2023-04-02T07:21:54.716Z,1.23
2023-04-02T07:22:54.709Z,1.26
2023-04-02T07:23:54.710Z,1.26
2023-04-02T07:24:54.716Z,1.22
2023-04-02T07:25:54.710Z,1.20
2023-04-02T07:26:54.735Z,1.18
2023-04-02T07:27:54.749Z,1.21
2023-04-02T07:28:54.727Z,1.21
2023-04-02T07:29:54.689Z,1.21
2023-04-02T07:30:54.699Z,1.19
2023-04-02T07:31:54.676Z,1.21
2023-04-02T07:32:54.694Z,1.17
2023-04-02T07:33:54.633Z,1.15
2023-04-02T07:34:54.626Z,1.12
2023-04-02T07:35:54.637Z,1.15
2023-04-02T07:36:54.568Z,1.11
2023-04-02T07:37:54.564Z,1.11
2023-04-02T07:38:54.542Z,1.10
2023-04-02T07:39:54.511Z,1.10
2023-04-02T07:40:54.487Z,1.12
2023-04-02T07:41:54.471Z,1.11
2023-04-02T07:42:54.440Z,1.09
2023-04-02T07:43:54.477Z,1.07
2023-04-02T07:44:54.429Z,1.05
2023-04-02T07:45:54.370Z,1.02
2023-04-02T07:46:54.415Z,0.99
2023-04-02T07:47:54.336Z,0.96
2023-04-02T07:48:54.345Z,0.95
2023-04-02T07:49:54.333Z,0.94
2023-04-02T07:50:54.360Z,0.92
2023-04-02T07:51:54.348Z,0.93
2023-04-02T07:52:54.361Z,0.89
2023-04-02T07:53:54.367Z,0.88
2023-04-02T07:54:54.385Z,0.84
2023-04-02T07:55:54.372Z,0.82
2023-04-02T07:56:54.465Z,0.82
2023-04-02T07:57:54.396Z,0.78
2023-04-02T07:58:54.423Z,0.76
2023-04-02T07:59:54.409Z,0.75
2023-04-02T08:00:54.428Z,0.73
2023-04-02T08:01:54.483Z,0.74
2023-04-02T08:02:54.506Z,0.73
2023-04-02T08:03:54.855Z,0.73
2023-04-02T08:04:54.463Z,0.74
2023-04-02T08:05:54.466Z,0.71
2023-04-02T08:06:54.455Z,0.68
2023-04-02T08:07:54.455Z,0.68
2023-04-02T08:08:54.441Z,0.68
2023-04-02T08:09:54.411Z,0.68
2023-04-02T08:10:54.393Z,0.67
2023-04-02T08:11:54.402Z,0.67
2023-04-02T08:12:54.392Z,0.67
2023-04-02T08:13:54.388Z,0.65
2023-04-02T08:14:54.361Z,0.64
2023-04-02T08:15:54.329Z,0.65
2023-04-02T08:16:54.416Z,0.67
2023-04-02T08:17:54.378Z,0.70
2023-04-02T08:18:54.328Z,0.76
2023-04-02T08:19:55.389Z,0.77
2023-04-02T08:20:54.293Z,0.72
2023-04-02T08:21:54.278Z,0.74
2023-04-02T08:22:54.259Z,0.78
2023-04-02T08:23:54.230Z,0.77
2023-04-02T08:24:54.239Z,0.76
2023-04-02T08:25:54.228Z,0.77
2023-04-02T08:26:54.233Z,0.79
2023-04-02T08:27:54.213Z,0.80
2023-04-02T08:28:54.184Z,0.79
2023-04-02T08:29:54.197Z,0.82
2023-04-02T08:30:54.238Z,0.81
2023-04-02T08:31:54.150Z,0.80
2023-04-02T08:32:54.209Z,0.81
2023-04-02T08:33:54.140Z,0.82
2023-04-02T08:34:54.111Z,0.78
2023-04-02T08:35:54.137Z,0.79
2023-04-02T08:36:54.103Z,0.75
2023-04-02T08:37:54.066Z,0.70
2023-04-02T08:38:54.060Z,0.72
2023-04-02T08:39:54.026Z,0.73
2023-04-02T08:40:53.999Z,0.71
2023-04-02T08:41:54.016Z,0.75
2023-04-02T08:42:53.970Z,0.75
2023-04-02T08:43:53.938Z,0.72
2023-04-02T08:44:53.927Z,0.74
2023-04-02T08:45:53.923Z,0.73
2023-04-02T08:46:53.910Z,0.74
2023-04-02T08:47:53.931Z,0.73
2023-04-02T08:48:53.864Z,0.73
2023-04-02T08:49:53.851Z,0.71
2023-04-02T08:50:53.840Z,0.70
2023-04-02T08:51:53.809Z,0.69
2023-04-02T08:52:53.809Z,0.68
2023-04-02T08:53:53.779Z,0.67
2023-04-02T08:54:53.766Z,0.67
2023-04-02T08:55:53.747Z,0.66
2023-04-02T08:56:53.754Z,0.67
2023-04-02T08:57:53.735Z,0.65
2023-04-02T08:58:53.707Z,0.64
2023-04-02T08:59:53.667Z,0.62
2023-04-02T09:00:53.665Z,0.63
2023-04-02T09:01:53.710Z,0.63
2023-04-02T09:02:53.620Z,0.62
2023-04-02T09:03:53.588Z,0.61
2023-04-02T09:04:53.616Z,0.60
2023-04-02T09:05:53.550Z,0.60
2023-04-02T09:06:53.530Z,0.60
2023-04-02T09:07:53.487Z,0.59
2023-04-02T09:08:53.515Z,0.58
2023-04-02T09:09:53.476Z,0.58
2023-04-02T09:10:53.458Z,0.55
2023-04-02T09:11:53.421Z,0.57
2023-04-02T09:12:53.435Z,0.58
2023-04-02T09:13:53.391Z,0.56
2023-04-02T09:14:53.425Z,0.53
2023-04-02T09:15:53.408Z,0.52
2023-04-02T09:16:53.344Z,0.52
2023-04-02T09:17:54.526Z,0.54
2023-04-02T09:18:53.325Z,0.54
2023-04-02T09:19:53.316Z,0.52
2023-04-02T09:20:53.288Z,0.52
2023-04-02T09:21:53.279Z,0.51
2023-04-02T09:22:53.347Z,0.51
2023-04-02T09:23:53.254Z,0.50
2023-04-02T09:24:53.251Z,0.53
2023-04-02T09:26:03.577Z,0.52
2023-04-02T09:26:54.211Z,0.52
2023-04-02T09:27:53.211Z,0.52
2023-04-02T09:28:53.176Z,0.50
2023-04-02T09:29:53.155Z,0.50
2023-04-02T09:30:53.122Z,0.49
2023-04-02T09:31:53.130Z,0.51
2023-04-02T09:32:53.231Z,0.52
2023-04-02T09:33:53.069Z,0.52
2023-04-02T09:34:53.051Z,0.50
2023-04-02T09:35:53.074Z,0.50
2023-04-02T09:36:53.002Z,0.51
2023-04-02T09:37:53.011Z,0.53
2023-04-02T09:38:52.969Z,0.51
2023-04-02T09:39:52.933Z,0.51
2023-04-02T09:40:52.906Z,0.50
2023-04-02T09:42:05.014Z,0.50
2023-04-02T09:42:53.861Z,0.50
2023-04-02T09:43:52.838Z,0.48
2023-04-02T09:44:52.845Z,0.47
2023-04-02T09:45:52.809Z,0.43
2023-04-02T09:46:52.862Z,0.43
2023-04-02T09:47:52.810Z,0.52
2023-04-02T09:48:52.742Z,0.50
2023-04-02T09:49:52.713Z,0.51
2023-04-02T09:50:52.717Z,0.50
2023-04-02T09:51:52.655Z,0.52
2023-04-02T09:52:52.657Z,0.51
2023-04-02T09:53:52.611Z,0.51
2023-04-02T09:54:52.616Z,0.51
2023-04-02T09:55:52.591Z,0.48
2023-04-02T09:56:52.582Z,0.51
2023-04-02T09:57:52.520Z,0.51
2023-04-02T09:58:52.505Z,0.53
2023-04-02T09:59:52.489Z,0.58
2023-04-02T10:00:52.552Z,0.59
2023-04-02T10:01:52.453Z,0.61
2023-04-02T10:02:52.465Z,0.60
2023-04-02T10:03:52.439Z,0.60
2023-04-02T10:04:52.379Z,0.56
2023-04-02T10:05:52.351Z,0.55
2023-04-02T10:06:52.313Z,0.54
2023-04-02T10:07:52.294Z,0.51
2023-04-02T10:08:52.268Z,0.51
2023-04-02T10:09:52.230Z,0.50
2023-04-02T10:10:52.199Z,0.55
2023-04-02T10:11:52.233Z,0.54
2023-04-02T10:12:52.239Z,0.54
2023-04-02T10:13:52.274Z,0.55
2023-04-02T10:14:52.288Z,0.57
2023-04-02T10:15:52.378Z,0.57
2023-04-02T10:16:52.420Z,0.60
2023-04-02T10:17:52.449Z,0.62
2023-04-02T10:18:52.421Z,0.63
2023-04-02T10:19:52.510Z,0.59
2023-04-02T10:20:52.494Z,0.62
2023-04-02T10:21:52.488Z,0.64
2023-04-02T10:22:52.522Z,0.63
2023-04-02T10:23:52.554Z,0.66
2023-04-02T10:24:52.600Z,0.67
2023-04-02T10:25:52.602Z,0.65
2023-04-02T10:26:52.624Z,0.68
2023-04-02T10:27:52.635Z,0.69
2023-04-02T10:28:52.733Z,0.67
2023-04-02T10:29:52.722Z,0.63
2023-04-02T10:30:52.807Z,0.64
2023-04-02T10:31:52.810Z,0.67
2023-04-02T10:32:52.896Z,0.64
2023-04-02T10:33:52.868Z,0.67
2023-04-02T10:34:52.843Z,0.67
2023-04-02T10:35:52.850Z,0.66
2023-04-02T10:36:52.789Z,0.68
2023-04-02T10:37:52.753Z,0.69
2023-04-02T10:38:52.740Z,0.62
2023-04-02T10:39:52.725Z,0.56
2023-04-02T10:40:53.144Z,0.55
2023-04-02T10:41:52.658Z,0.54
2023-04-02T10:42:52.673Z,0.50
2023-04-02T10:43:52.732Z,0.52
2023-04-02T10:44:52.732Z,0.51
2023-04-02T10:45:52.859Z,0.50
2023-04-02T10:46:52.803Z,0.51
2023-04-02T10:47:52.918Z,0.51
2023-04-02T10:48:52.892Z,0.50
2023-04-02T10:49:52.993Z,0.50
2023-04-02T10:50:52.974Z,0.50
2023-04-02T10:51:53.026Z,0.52
2023-04-02T10:52:53.826Z,0.58
2023-04-02T10:53:53.085Z,0.54
2023-04-02T10:54:53.098Z,0.52
2023-04-02T10:55:53.145Z,0.54
2023-04-02T10:56:53.304Z,0.54
2023-04-02T10:57:53.258Z,0.51
2023-04-02T10:58:54.996Z,0.51
2023-04-02T10:59:53.269Z,0.50
2023-04-02T11:00:53.211Z,0.53
2023-04-02T11:01:53.232Z,0.53
2023-04-02T11:02:53.284Z,0.51
2023-04-02T11:03:53.260Z,0.51
2023-04-02T11:04:53.945Z,0.53
2023-04-02T11:05:53.081Z,0.51
2023-04-02T11:06:58.075Z,0.49
2023-04-02T11:07:54.035Z,0.49
2023-04-02T11:08:53.005Z,0.47
2023-04-02T11:09:52.987Z,0.47
2023-04-02T11:10:52.938Z,0.47
2023-04-02T11:11:52.912Z,0.45
2023-04-02T11:12:52.877Z,0.50
2023-04-02T11:13:52.819Z,0.50
2023-04-02T11:14:52.797Z,0.50
2023-04-02T11:15:52.792Z,0.51
2023-04-02T11:16:52.724Z,0.51
2023-04-02T11:17:52.828Z,0.50
2023-04-02T11:18:52.656Z,0.51
2023-04-02T11:19:52.677Z,0.53
2023-04-02T11:20:52.609Z,0.52
2023-04-02T11:21:59.593Z,0.51
2023-04-02T11:22:53.537Z,0.51
2023-04-02T11:23:52.504Z,0.51
2023-04-02T11:24:52.487Z,0.53
2023-04-02T11:25:52.448Z,0.58
2023-04-02T11:26:52.401Z,0.61
2023-04-02T11:27:52.367Z,0.61
2023-04-02T11:28:52.348Z,0.60
2023-04-02T11:29:52.329Z,0.59
2023-04-02T11:30:52.309Z,0.58
2023-04-02T11:31:52.379Z,0.57
2023-04-02T11:32:52.470Z,0.57
2023-04-02T11:33:52.341Z,0.56
2023-04-02T11:35:05.236Z,0.56
2023-04-02T11:35:53.401Z,0.56
2023-04-02T11:36:52.251Z,0.55
2023-04-02T11:37:52.211Z,0.54
2023-04-02T11:38:52.637Z,0.54
2023-04-02T11:39:52.167Z,0.55
2023-04-02T11:40:52.149Z,0.54
2023-04-02T11:41:52.100Z,0.56
2023-04-02T11:42:52.053Z,0.55
2023-04-02T11:43:52.031Z,0.55
2023-04-02T11:44:52.001Z,0.55
2023-04-02T11:45:53.151Z,0.54
2023-04-02T11:46:52.000Z,0.54
2023-04-02T11:47:51.971Z,0.53
2023-04-02T11:48:51.905Z,0.54
2023-04-02T11:49:51.878Z,0.53
2023-04-02T11:50:51.861Z,0.54
2023-04-02T11:51:59.144Z,0.54
2023-04-02T11:52:52.848Z,0.53
2023-04-02T11:53:51.801Z,0.52
2023-04-02T11:54:51.763Z,0.52
2023-04-02T11:55:51.738Z,0.52
2023-04-02T11:56:51.732Z,0.53
2023-04-02T11:57:51.687Z,0.54
2023-04-02T11:58:51.656Z,0.53
2023-04-02T11:59:51.623Z,0.53
2023-04-02T12:00:51.589Z,0.53
2023-04-02T12:01:51.584Z,0.53
2023-04-02T12:02:51.544Z,0.53
2023-04-02T12:03:51.505Z,0.53
2023-04-02T12:04:51.486Z,0.52
2023-04-02T12:05:51.462Z,0.53
2023-04-02T12:06:51.408Z,0.53
2023-04-02T12:07:51.388Z,0.52
2023-04-02T12:08:57.613Z,0.52
2023-04-02T12:09:52.336Z,0.52
2023-04-02T12:10:51.301Z,0.53
2023-04-02T12:11:52.077Z,0.53
2023-04-02T12:12:51.227Z,0.53
2023-04-02T12:13:51.205Z,0.55
2023-04-02T12:14:51.173Z,0.56
2023-04-02T12:15:51.153Z,0.53
2023-04-02T12:16:51.154Z,0.53
2023-04-02T12:17:51.226Z,0.54
2023-04-02T12:18:51.056Z,0.55
2023-04-02T12:19:51.022Z,0.54
2023-04-02T12:20:51.042Z,0.54
2023-04-02T12:21:50.969Z,0.55
2023-04-02T12:22:50.932Z,0.55
2023-04-02T12:23:50.889Z,0.54
2023-04-02T12:24:50.871Z,0.57
2023-04-02T12:25:50.845Z,0.57
2023-04-02T12:26:50.837Z,0.57
2023-04-02T12:27:50.771Z,0.57
2023-04-02T12:28:50.738Z,0.58
2023-04-02T12:29:50.710Z,0.58
2023-04-02T12:30:50.699Z,0.59
2023-04-02T12:31:50.651Z,0.59
2023-04-02T12:32:50.695Z,0.59
2023-04-02T12:33:50.586Z,0.58
2023-04-02T12:34:50.553Z,0.59
2023-04-02T12:35:50.562Z,0.57
2023-04-02T12:36:50.504Z,0.60
2023-04-02T12:37:50.471Z,0.60
2023-04-02T12:38:50.444Z,0.60
2023-04-02T12:39:50.412Z,0.59
2023-04-02T12:40:50.375Z,0.61
2023-04-02T12:41:50.359Z,0.60
2023-04-02T12:42:50.324Z,0.60
2023-04-02T12:43:50.317Z,0.60
2023-04-02T12:44:50.316Z,0.59
2023-04-02T12:45:50.334Z,0.60
2023-04-02T12:46:50.282Z,0.60
2023-04-02T12:47:50.243Z,0.61
2023-04-02T12:48:50.188Z,0.62
2023-04-02T12:49:50.171Z,0.64
2023-04-02T12:50:50.140Z,0.63
2023-04-02T12:51:50.117Z,0.64
2023-04-02T12:52:50.088Z,0.64
2023-04-02T12:53:50.052Z,0.65
2023-04-02T12:54:50.026Z,0.64
2023-04-02T12:55:49.996Z,0.62
2023-04-02T12:56:50.023Z,0.63
2023-04-02T12:57:49.980Z,0.63
2023-04-02T12:58:49.886Z,0.63
2023-04-02T12:59:49.865Z,0.61
2023-04-02T13:00:49.873Z,0.60
2023-04-02T13:01:49.823Z,0.62
2023-04-02T13:02:49.809Z,0.62
2023-04-02T13:03:49.765Z,0.62
2023-04-02T13:04:49.713Z,0.60
2023-04-02T13:05:49.676Z,0.60
2023-04-02T13:06:49.673Z,0.62
2023-04-02T13:07:49.620Z,0.60
2023-04-02T13:08:49.593Z,0.62
2023-04-02T13:09:49.552Z,0.61
2023-04-02T13:10:49.520Z,0.59
2023-04-02T13:11:49.491Z,0.62
2023-04-02T13:12:49.447Z,0.63
2023-04-02T13:13:49.440Z,0.63
2023-04-02T13:14:49.385Z,0.62
2023-04-02T13:15:49.366Z,0.62
2023-04-02T13:16:49.319Z,0.61
2023-04-02T13:17:49.300Z,0.62
2023-04-02T13:18:49.286Z,0.61